sensor_id;sensor_type;location;lat;lon;timestamp;P1;durP1;ratioP1;P2;durP2;ratioP2
44822;SDS011;51097;51.984;5.650;2023-09-07T00:01:22;7.75;;;5.20;;
44822;SDS011;51097;51.984;5.650;2023-09-07T00:03:48;11.07;;;6.00;;
44822;SDS011;51097;51.984;5.650;2023-09-07T00:06:14;8.18;;;5.93;;
44822;SDS011;51097;51.984;5.650;2023-09-07T00:08:40;6.60;;;6.00;;
44822;SDS011;51097;51.984;5.650;2023-09-07T00:11:06;7.53;;;5.07;;
44822;SDS011;51097;51.984;5.650;2023-09-07T00:13:32;6.03;;;5.43;;
44822;SDS011;51097;51.984;5.650;2023-09-07T00:16:03;10.10;;;5.60;;
44822;SDS011;51097;51.984;5.650;2023-09-07T00:18:29;7.72;;;6.22;;
44822;SDS011;51097;51.984;5.650;2023-09-07T00:20:56;6.45;;;5.85;;
44822;SDS011;51097;51.984;5.650;2023-09-07T00:23:21;6.95;;;5.95;;
44822;SDS011;51097;51.984;5.650;2023-09-07T00:25:47;8.23;;;5.97;;
44822;SDS011;51097;51.984;5.650;2023-09-07T00:28:13;7.63;;;5.85;;
44822;SDS011;51097;51.984;5.650;2023-09-07T00:30:39;7.13;;;5.95;;
44822;SDS011;51097;51.984;5.650;2023-09-07T00:33:05;6.28;;;5.68;;
44822;SDS011;51097;51.984;5.650;2023-09-07T00:35:31;8.98;;;6.20;;
44822;SDS011;51097;51.984;5.650;2023-09-07T00:37:57;7.60;;;6.60;;
44822;SDS011;51097;51.984;5.650;2023-09-07T00:40:22;7.40;;;6.70;;
44822;SDS011;51097;51.984;5.650;2023-09-07T00:42:48;7.05;;;6.35;;
44822;SDS011;51097;51.984;5.650;2023-09-07T00:45:14;7.00;;;6.30;;
44822;SDS011;51097;51.984;5.650;2023-09-07T00:47:40;7.78;;;6.03;;
44822;SDS011;51097;51.984;5.650;2023-09-07T00:50:06;6.95;;;6.25;;
44822;SDS011;51097;51.984;5.650;2023-09-07T00:52:32;8.68;;;7.18;;
44822;SDS011;51097;51.984;5.650;2023-09-07T00:54:59;8.63;;;6.70;;
44822;SDS011;51097;51.984;5.650;2023-09-07T00:57:27;7.40;;;6.60;;
44822;SDS011;51097;51.984;5.650;2023-09-07T00:59:52;8.73;;;6.22;;
44822;SDS011;51097;51.984;5.650;2023-09-07T01:02:19;8.38;;;6.88;;
44822;SDS011;51097;51.984;5.650;2023-09-07T01:04:44;7.82;;;6.40;;
44822;SDS011;51097;51.984;5.650;2023-09-07T01:07:20;6.88;;;6.00;;
44822;SDS011;51097;51.984;5.650;2023-09-07T01:09:51;9.07;;;6.90;;
44822;SDS011;51097;51.984;5.650;2023-09-07T01:12:21;6.57;;;5.80;;
44822;SDS011;51097;51.984;5.650;2023-09-07T01:14:46;7.38;;;6.68;;
44822;SDS011;51097;51.984;5.650;2023-09-07T01:17:12;9.65;;;6.13;;
44822;SDS011;51097;51.984;5.650;2023-09-07T01:19:38;8.25;;;6.30;;
44822;SDS011;51097;51.984;5.650;2023-09-07T01:22:05;8.75;;;6.35;;
44822;SDS011;51097;51.984;5.650;2023-09-07T01:24:33;8.38;;;6.88;;
44822;SDS011;51097;51.984;5.650;2023-09-07T01:27:00;7.85;;;6.55;;
44822;SDS011;51097;51.984;5.650;2023-09-07T01:29:28;6.90;;;6.30;;
44822;SDS011;51097;51.984;5.650;2023-09-07T01:31:55;8.20;;;6.20;;
44822;SDS011;51097;51.984;5.650;2023-09-07T01:34:22;7.65;;;6.88;;
44822;SDS011;51097;51.984;5.650;2023-09-07T01:36:48;11.45;;;7.25;;
44822;SDS011;51097;51.984;5.650;2023-09-07T01:39:14;8.43;;;6.80;;
44822;SDS011;51097;51.984;5.650;2023-09-07T01:41:39;10.00;;;7.28;;
44822;SDS011;51097;51.984;5.650;2023-09-07T01:44:05;8.70;;;6.82;;
44822;SDS011;51097;51.984;5.650;2023-09-07T01:46:31;8.57;;;7.57;;
44822;SDS011;51097;51.984;5.650;2023-09-07T01:48:57;8.50;;;7.55;;
44822;SDS011;51097;51.984;5.650;2023-09-07T01:51:22;8.55;;;7.57;;
44822;SDS011;51097;51.984;5.650;2023-09-07T01:53:48;8.15;;;7.35;;
44822;SDS011;51097;51.984;5.650;2023-09-07T01:56:14;7.10;;;6.45;;
44822;SDS011;51097;51.984;5.650;2023-09-07T01:58:43;9.35;;;8.45;;
44822;SDS011;51097;51.984;5.650;2023-09-07T02:01:19;8.75;;;7.95;;
44822;SDS011;51097;51.984;5.650;2023-09-07T02:03:46;9.45;;;7.03;;
44822;SDS011;51097;51.984;5.650;2023-09-07T02:06:11;8.32;;;7.57;;
44822;SDS011;51097;51.984;5.650;2023-09-07T02:08:37;9.15;;;6.55;;
44822;SDS011;51097;51.984;5.650;2023-09-07T02:11:02;9.48;;;7.32;;
44822;SDS011;51097;51.984;5.650;2023-09-07T02:13:30;7.93;;;7.10;;
44822;SDS011;51097;51.984;5.650;2023-09-07T02:15:56;8.13;;;7.32;;
44822;SDS011;51097;51.984;5.650;2023-09-07T02:18:22;14.68;;;6.95;;
44822;SDS011;51097;51.984;5.650;2023-09-07T02:20:47;12.88;;;8.05;;
44822;SDS011;51097;51.984;5.650;2023-09-07T02:23:13;8.55;;;7.47;;
44822;SDS011;51097;51.984;5.650;2023-09-07T02:25:40;8.90;;;8.00;;
44822;SDS011;51097;51.984;5.650;2023-09-07T02:28:06;9.88;;;7.47;;
44822;SDS011;51097;51.984;5.650;2023-09-07T02:30:31;9.25;;;7.50;;
44822;SDS011;51097;51.984;5.650;2023-09-07T02:32:57;11.85;;;9.05;;
44822;SDS011;51097;51.984;5.650;2023-09-07T02:35:22;8.70;;;7.10;;
44822;SDS011;51097;51.984;5.650;2023-09-07T02:37:48;8.88;;;7.63;;
44822;SDS011;51097;51.984;5.650;2023-09-07T02:40:14;8.52;;;7.10;;
44822;SDS011;51097;51.984;5.650;2023-09-07T02:42:41;9.48;;;8.50;;
44822;SDS011;51097;51.984;5.650;2023-09-07T02:45:10;10.65;;;7.47;;
44822;SDS011;51097;51.984;5.650;2023-09-07T02:47:36;8.75;;;7.85;;
44822;SDS011;51097;51.984;5.650;2023-09-07T02:50:01;8.88;;;7.10;;
44822;SDS011;51097;51.984;5.650;2023-09-07T02:52:27;8.38;;;7.57;;
44822;SDS011;51097;51.984;5.650;2023-09-07T02:54:53;15.43;;;7.50;;
44822;SDS011;51097;51.984;5.650;2023-09-07T02:57:18;8.07;;;7.28;;
44822;SDS011;51097;51.984;5.650;2023-09-07T02:59:44;8.75;;;7.18;;
44822;SDS011;51097;51.984;5.650;2023-09-07T03:02:09;8.55;;;7.32;;
44822;SDS011;51097;51.984;5.650;2023-09-07T03:04:35;11.30;;;7.55;;
44822;SDS011;51097;51.984;5.650;2023-09-07T03:07:01;8.13;;;6.88;;
44822;SDS011;51097;51.984;5.650;2023-09-07T03:09:27;8.32;;;7.35;;
44822;SDS011;51097;51.984;5.650;2023-09-07T03:11:52;7.90;;;7.10;;
44822;SDS011;51097;51.984;5.650;2023-09-07T03:14:18;10.30;;;6.93;;
44822;SDS011;51097;51.984;5.650;2023-09-07T03:16:43;8.45;;;7.40;;
44822;SDS011;51097;51.984;5.650;2023-09-07T03:19:09;8.77;;;7.40;;
44822;SDS011;51097;51.984;5.650;2023-09-07T03:21:34;9.30;;;7.47;;
44822;SDS011;51097;51.984;5.650;2023-09-07T03:24:00;10.68;;;8.10;;
44822;SDS011;51097;51.984;5.650;2023-09-07T03:26:26;10.68;;;7.47;;
44822;SDS011;51097;51.984;5.650;2023-09-07T03:28:51;9.73;;;7.75;;
44822;SDS011;51097;51.984;5.650;2023-09-07T03:31:20;8.70;;;7.80;;
44822;SDS011;51097;51.984;5.650;2023-09-07T03:33:45;9.02;;;8.02;;
44822;SDS011;51097;51.984;5.650;2023-09-07T03:36:11;7.72;;;6.88;;
44822;SDS011;51097;51.984;5.650;2023-09-07T03:38:39;8.10;;;7.30;;
44822;SDS011;51097;51.984;5.650;2023-09-07T03:41:05;9.48;;;8.05;;
44822;SDS011;51097;51.984;5.650;2023-09-07T03:43:31;8.85;;;7.80;;
44822;SDS011;51097;51.984;5.650;2023-09-07T03:45:57;10.25;;;7.10;;
44822;SDS011;51097;51.984;5.650;2023-09-07T03:48:23;10.48;;;7.55;;
44822;SDS011;51097;51.984;5.650;2023-09-07T03:50:48;8.98;;;6.80;;
44822;SDS011;51097;51.984;5.650;2023-09-07T03:53:14;8.05;;;6.80;;
44822;SDS011;51097;51.984;5.650;2023-09-07T03:55:40;8.77;;;7.05;;
44822;SDS011;51097;51.984;5.650;2023-09-07T03:58:07;10.32;;;7.43;;
44822;SDS011;51097;51.984;5.650;2023-09-07T04:00:34;8.38;;;7.13;;
44822;SDS011;51097;51.984;5.650;2023-09-07T04:03:02;8.38;;;7.18;;
44822;SDS011;51097;51.984;5.650;2023-09-07T04:05:28;7.88;;;7.13;;
44822;SDS011;51097;51.984;5.650;2023-09-07T04:07:54;11.95;;;8.20;;
44822;SDS011;51097;51.984;5.650;2023-09-07T04:10:20;9.60;;;7.65;;
44822;SDS011;51097;51.984;5.650;2023-09-07T04:12:45;9.85;;;7.70;;
44822;SDS011;51097;51.984;5.650;2023-09-07T04:15:11;9.65;;;8.38;;
44822;SDS011;51097;51.984;5.650;2023-09-07T04:17:36;9.45;;;7.75;;
44822;SDS011;51097;51.984;5.650;2023-09-07T04:20:05;10.02;;;8.85;;
44822;SDS011;51097;51.984;5.650;2023-09-07T04:22:36;10.18;;;8.13;;
44822;SDS011;51097;51.984;5.650;2023-09-07T04:25:03;12.35;;;8.90;;
44822;SDS011;51097;51.984;5.650;2023-09-07T04:27:30;9.07;;;8.18;;
44822;SDS011;51097;51.984;5.650;2023-09-07T04:29:56;10.90;;;8.55;;
44822;SDS011;51097;51.984;5.650;2023-09-07T04:32:21;9.73;;;7.35;;
44822;SDS011;51097;51.984;5.650;2023-09-07T04:34:47;15.05;;;9.15;;
44822;SDS011;51097;51.984;5.650;2023-09-07T04:37:12;8.68;;;7.85;;
44822;SDS011;51097;51.984;5.650;2023-09-07T04:39:38;9.65;;;7.65;;
44822;SDS011;51097;51.984;5.650;2023-09-07T04:42:05;9.05;;;8.15;;
44822;SDS011;51097;51.984;5.650;2023-09-07T04:44:30;8.98;;;8.07;;
44822;SDS011;51097;51.984;5.650;2023-09-07T04:46:56;9.25;;;7.38;;
44822;SDS011;51097;51.984;5.650;2023-09-07T04:49:22;10.52;;;8.05;;
44822;SDS011;51097;51.984;5.650;2023-09-07T04:51:49;10.90;;;7.70;;
44822;SDS011;51097;51.984;5.650;2023-09-07T04:54:17;8.65;;;7.22;;
44822;SDS011;51097;51.984;5.650;2023-09-07T04:56:43;9.60;;;7.72;;
44822;SDS011;51097;51.984;5.650;2023-09-07T04:59:08;9.93;;;7.72;;
44822;SDS011;51097;51.984;5.650;2023-09-07T05:01:34;8.48;;;7.38;;
44822;SDS011;51097;51.984;5.650;2023-09-07T05:03:59;8.27;;;6.38;;
44822;SDS011;51097;51.984;5.650;2023-09-07T05:06:27;7.78;;;6.93;;
44822;SDS011;51097;51.984;5.650;2023-09-07T05:08:52;7.60;;;6.47;;
44822;SDS011;51097;51.984;5.650;2023-09-07T05:11:18;8.48;;;6.70;;
44822;SDS011;51097;51.984;5.650;2023-09-07T05:13:43;10.15;;;6.80;;
44822;SDS011;51097;51.984;5.650;2023-09-07T05:16:09;8.45;;;7.10;;
44822;SDS011;51097;51.984;5.650;2023-09-07T05:18:35;8.25;;;7.45;;
44822;SDS011;51097;51.984;5.650;2023-09-07T05:21:00;8.20;;;7.20;;
44822;SDS011;51097;51.984;5.650;2023-09-07T05:23:27;8.55;;;6.55;;
44822;SDS011;51097;51.984;5.650;2023-09-07T05:25:53;9.25;;;8.35;;
44822;SDS011;51097;51.984;5.650;2023-09-07T05:28:20;11.05;;;7.80;;
44822;SDS011;51097;51.984;5.650;2023-09-07T05:30:50;9.23;;;8.32;;
44822;SDS011;51097;51.984;5.650;2023-09-07T05:33:16;11.00;;;9.07;;
44822;SDS011;51097;51.984;5.650;2023-09-07T05:35:42;9.02;;;7.78;;
44822;SDS011;51097;51.984;5.650;2023-09-07T05:38:08;9.23;;;8.32;;
44822;SDS011;51097;51.984;5.650;2023-09-07T05:40:35;10.93;;;9.50;;
44822;SDS011;51097;51.984;5.650;2023-09-07T05:43:01;8.80;;;7.85;;
44822;SDS011;51097;51.984;5.650;2023-09-07T05:45:29;12.30;;;8.80;;
44822;SDS011;51097;51.984;5.650;2023-09-07T05:47:55;9.68;;;8.68;;
44822;SDS011;51097;51.984;5.650;2023-09-07T05:50:21;10.25;;;9.15;;
44822;SDS011;51097;51.984;5.650;2023-09-07T05:52:47;12.25;;;9.68;;
44822;SDS011;51097;51.984;5.650;2023-09-07T05:55:12;9.70;;;8.73;;
44822;SDS011;51097;51.984;5.650;2023-09-07T05:57:38;13.68;;;9.68;;
44822;SDS011;51097;51.984;5.650;2023-09-07T06:00:04;10.70;;;9.48;;
44822;SDS011;51097;51.984;5.650;2023-09-07T06:02:30;9.50;;;8.50;;
44822;SDS011;51097;51.984;5.650;2023-09-07T06:04:56;14.15;;;8.82;;
44822;SDS011;51097;51.984;5.650;2023-09-07T06:07:21;9.63;;;8.63;;
44822;SDS011;51097;51.984;5.650;2023-09-07T06:09:47;12.80;;;9.13;;
44822;SDS011;51097;51.984;5.650;2023-09-07T06:12:12;11.07;;;9.18;;
44822;SDS011;51097;51.984;5.650;2023-09-07T06:14:38;10.57;;;9.25;;
44822;SDS011;51097;51.984;5.650;2023-09-07T06:17:04;12.98;;;9.13;;
44822;SDS011;51097;51.984;5.650;2023-09-07T06:19:29;12.27;;;9.38;;
44822;SDS011;51097;51.984;5.650;2023-09-07T06:21:56;10.15;;;9.15;;
44822;SDS011;51097;51.984;5.650;2023-09-07T06:24:21;11.32;;;8.30;;
44822;SDS011;51097;51.984;5.650;2023-09-07T06:26:47;11.80;;;8.13;;
44822;SDS011;51097;51.984;5.650;2023-09-07T06:29:13;11.43;;;8.02;;
44822;SDS011;51097;51.984;5.650;2023-09-07T06:31:39;9.02;;;7.70;;
44822;SDS011;51097;51.984;5.650;2023-09-07T06:34:04;10.73;;;8.02;;
44822;SDS011;51097;51.984;5.650;2023-09-07T06:36:30;9.38;;;7.78;;
44822;SDS011;51097;51.984;5.650;2023-09-07T06:38:56;9.55;;;7.55;;
44822;SDS011;51097;51.984;5.650;2023-09-07T06:41:23;11.02;;;7.72;;
44822;SDS011;51097;51.984;5.650;2023-09-07T06:43:49;8.65;;;7.28;;
44822;SDS011;51097;51.984;5.650;2023-09-07T06:46:14;10.30;;;7.97;;
44822;SDS011;51097;51.984;5.650;2023-09-07T06:48:41;9.80;;;8.00;;
44822;SDS011;51097;51.984;5.650;2023-09-07T06:51:06;9.00;;;7.68;;
44822;SDS011;51097;51.984;5.650;2023-09-07T06:53:33;10.95;;;7.93;;
44822;SDS011;51097;51.984;5.650;2023-09-07T06:55:59;8.27;;;7.47;;
44822;SDS011;51097;51.984;5.650;2023-09-07T06:58:26;9.90;;;7.93;;
44822;SDS011;51097;51.984;5.650;2023-09-07T07:00:52;9.38;;;7.30;;
44822;SDS011;51097;51.984;5.650;2023-09-07T07:03:21;9.20;;;6.75;;
44822;SDS011;51097;51.984;5.650;2023-09-07T07:05:47;8.38;;;7.20;;
44822;SDS011;51097;51.984;5.650;2023-09-07T07:08:12;11.25;;;7.60;;
44822;SDS011;51097;51.984;5.650;2023-09-07T07:10:38;9.25;;;6.93;;
44822;SDS011;51097;51.984;5.650;2023-09-07T07:13:03;9.25;;;7.30;;
44822;SDS011;51097;51.984;5.650;2023-09-07T07:15:29;8.40;;;7.35;;
44822;SDS011;51097;51.984;5.650;2023-09-07T07:17:54;9.82;;;6.80;;
44822;SDS011;51097;51.984;5.650;2023-09-07T07:20:20;11.57;;;8.10;;
44822;SDS011;51097;51.984;5.650;2023-09-07T07:22:46;11.45;;;7.80;;
44822;SDS011;51097;51.984;5.650;2023-09-07T07:25:11;8.48;;;7.13;;
44822;SDS011;51097;51.984;5.650;2023-09-07T07:27:37;8.38;;;7.10;;
44822;SDS011;51097;51.984;5.650;2023-09-07T07:30:03;7.53;;;6.72;;
44822;SDS011;51097;51.984;5.650;2023-09-07T07:32:29;10.00;;;7.13;;
44822;SDS011;51097;51.984;5.650;2023-09-07T07:34:55;10.75;;;7.20;;
44822;SDS011;51097;51.984;5.650;2023-09-07T07:37:22;8.07;;;6.82;;
44822;SDS011;51097;51.984;5.650;2023-09-07T07:39:47;9.55;;;6.78;;
44822;SDS011;51097;51.984;5.650;2023-09-07T07:42:13;10.68;;;7.30;;
44822;SDS011;51097;51.984;5.650;2023-09-07T07:44:38;9.75;;;6.07;;
44822;SDS011;51097;51.984;5.650;2023-09-07T07:47:04;10.90;;;6.88;;
44822;SDS011;51097;51.984;5.650;2023-09-07T07:49:30;8.45;;;7.05;;
44822;SDS011;51097;51.984;5.650;2023-09-07T07:51:56;8.15;;;7.35;;
44822;SDS011;51097;51.984;5.650;2023-09-07T07:54:23;9.02;;;6.47;;
44822;SDS011;51097;51.984;5.650;2023-09-07T07:56:49;10.40;;;5.95;;
44822;SDS011;51097;51.984;5.650;2023-09-07T07:59:15;6.25;;;5.65;;
44822;SDS011;51097;51.984;5.650;2023-09-07T08:01:41;7.45;;;6.43;;
44822;SDS011;51097;51.984;5.650;2023-09-07T08:04:07;7.03;;;5.40;;
44822;SDS011;51097;51.984;5.650;2023-09-07T08:06:33;8.35;;;6.30;;
44822;SDS011;51097;51.984;5.650;2023-09-07T08:08:59;8.35;;;6.05;;
44822;SDS011;51097;51.984;5.650;2023-09-07T08:11:25;6.85;;;5.40;;
44822;SDS011;51097;51.984;5.650;2023-09-07T08:13:52;7.38;;;6.20;;
44822;SDS011;51097;51.984;5.650;2023-09-07T08:16:17;9.13;;;5.40;;
44822;SDS011;51097;51.984;5.650;2023-09-07T08:18:43;6.78;;;5.50;;
44822;SDS011;51097;51.984;5.650;2023-09-07T08:21:09;8.93;;;5.65;;
44822;SDS011;51097;51.984;5.650;2023-09-07T08:23:34;6.68;;;5.43;;
44822;SDS011;51097;51.984;5.650;2023-09-07T08:26:01;6.75;;;6.05;;
44822;SDS011;51097;51.984;5.650;2023-09-07T08:28:27;6.88;;;5.50;;
44822;SDS011;51097;51.984;5.650;2023-09-07T08:30:54;6.32;;;5.65;;
44822;SDS011;51097;51.984;5.650;2023-09-07T08:33:23;7.63;;;5.60;;
44822;SDS011;51097;51.984;5.650;2023-09-07T08:35:52;8.98;;;5.72;;
44822;SDS011;51097;51.984;5.650;2023-09-07T08:38:19;6.03;;;5.18;;
44822;SDS011;51097;51.984;5.650;2023-09-07T08:40:47;5.97;;;5.28;;
44822;SDS011;51097;51.984;5.650;2023-09-07T08:43:13;8.90;;;5.63;;
44822;SDS011;51097;51.984;5.650;2023-09-07T08:45:46;6.82;;;5.05;;
44822;SDS011;51097;51.984;5.650;2023-09-07T08:48:16;6.00;;;5.10;;
44822;SDS011;51097;51.984;5.650;2023-09-07T08:50:44;6.18;;;5.57;;
44822;SDS011;51097;51.984;5.650;2023-09-07T08:53:18;7.63;;;5.55;;
44822;SDS011;51097;51.984;5.650;2023-09-07T08:55:47;7.65;;;6.03;;
44822;SDS011;51097;51.984;5.650;2023-09-07T08:58:13;6.93;;;5.32;;
44822;SDS011;51097;51.984;5.650;2023-09-07T09:00:39;6.65;;;5.68;;
44822;SDS011;51097;51.984;5.650;2023-09-07T09:03:08;8.02;;;6.10;;
44822;SDS011;51097;51.984;5.650;2023-09-07T09:05:34;5.13;;;4.63;;
44822;SDS011;51097;51.984;5.650;2023-09-07T09:08:04;10.27;;;5.93;;
44822;SDS011;51097;51.984;5.650;2023-09-07T09:10:30;9.73;;;5.65;;
44822;SDS011;51097;51.984;5.650;2023-09-07T09:12:55;7.40;;;5.85;;
44822;SDS011;51097;51.984;5.650;2023-09-07T09:15:22;8.18;;;5.15;;
44822;SDS011;51097;51.984;5.650;2023-09-07T09:17:47;8.02;;;5.55;;
44822;SDS011;51097;51.984;5.650;2023-09-07T09:20:26;6.43;;;5.63;;
44822;SDS011;51097;51.984;5.650;2023-09-07T09:22:52;7.53;;;5.93;;
44822;SDS011;51097;51.984;5.650;2023-09-07T09:25:18;7.07;;;5.72;;
44822;SDS011;51097;51.984;5.650;2023-09-07T09:27:44;9.73;;;5.78;;
44822;SDS011;51097;51.984;5.650;2023-09-07T09:30:11;7.63;;;6.15;;
44822;SDS011;51097;51.984;5.650;2023-09-07T09:32:40;11.38;;;6.00;;
44822;SDS011;51097;51.984;5.650;2023-09-07T09:35:06;9.90;;;6.07;;
44822;SDS011;51097;51.984;5.650;2023-09-07T09:37:32;5.88;;;5.38;;
44822;SDS011;51097;51.984;5.650;2023-09-07T09:39:58;8.43;;;5.82;;
44822;SDS011;51097;51.984;5.650;2023-09-07T09:42:27;6.97;;;5.47;;
44822;SDS011;51097;51.984;5.650;2023-09-07T09:44:52;8.07;;;5.47;;
44822;SDS011;51097;51.984;5.650;2023-09-07T09:47:19;6.55;;;5.45;;
44822;SDS011;51097;51.984;5.650;2023-09-07T09:49:46;7.82;;;5.22;;
44822;SDS011;51097;51.984;5.650;2023-09-07T09:52:14;7.13;;;4.93;;
44822;SDS011;51097;51.984;5.650;2023-09-07T09:54:41;7.25;;;5.47;;
44822;SDS011;51097;51.984;5.650;2023-09-07T09:57:08;5.35;;;4.85;;
44822;SDS011;51097;51.984;5.650;2023-09-07T09:59:34;8.45;;;5.07;;
44822;SDS011;51097;51.984;5.650;2023-09-07T10:01:59;5.28;;;4.78;;
44822;SDS011;51097;51.984;5.650;2023-09-07T10:04:27;7.55;;;5.38;;
44822;SDS011;51097;51.984;5.650;2023-09-07T10:07:04;6.25;;;4.60;;
44822;SDS011;51097;51.984;5.650;2023-09-07T10:09:33;6.38;;;4.93;;
44822;SDS011;51097;51.984;5.650;2023-09-07T10:12:01;6.57;;;5.25;;
44822;SDS011;51097;51.984;5.650;2023-09-07T10:14:38;6.32;;;5.45;;
44822;SDS011;51097;51.984;5.650;2023-09-07T10:17:05;9.82;;;4.82;;
44822;SDS011;51097;51.984;5.650;2023-09-07T10:19:31;6.95;;;5.05;;
44822;SDS011;51097;51.984;5.650;2023-09-07T10:21:58;9.48;;;5.32;;
44822;SDS011;51097;51.984;5.650;2023-09-07T10:29:42;7.80;;;5.50;;
44822;SDS011;51097;51.984;5.650;2023-09-07T10:32:10;5.95;;;4.72;;
44822;SDS011;51097;51.984;5.650;2023-09-07T10:34:38;8.23;;;5.28;;
44822;SDS011;51097;51.984;5.650;2023-09-07T10:37:11;6.70;;;4.97;;
44822;SDS011;51097;51.984;5.650;2023-09-07T10:42:23;6.38;;;4.68;;
44822;SDS011;51097;51.984;5.650;2023-09-07T10:44:50;8.25;;;5.40;;
44822;SDS011;51097;51.984;5.650;2023-09-07T10:47:15;7.93;;;5.38;;
44822;SDS011;51097;51.984;5.650;2023-09-07T10:49:41;7.13;;;5.00;;
44822;SDS011;51097;51.984;5.650;2023-09-07T10:52:07;13.63;;;5.03;;
44822;SDS011;51097;51.984;5.650;2023-09-07T10:54:33;5.50;;;5.00;;
44822;SDS011;51097;51.984;5.650;2023-09-07T10:57:07;10.35;;;5.43;;
44822;SDS011;51097;51.984;5.650;2023-09-07T10:59:33;8.70;;;5.15;;
44822;SDS011;51097;51.984;5.650;2023-09-07T11:02:05;7.05;;;5.63;;
44822;SDS011;51097;51.984;5.650;2023-09-07T11:04:31;5.25;;;4.80;;
44822;SDS011;51097;51.984;5.650;2023-09-07T11:06:57;7.63;;;5.43;;
44822;SDS011;51097;51.984;5.650;2023-09-07T11:09:23;7.50;;;5.25;;
44822;SDS011;51097;51.984;5.650;2023-09-07T11:11:48;5.68;;;4.75;;
44822;SDS011;51097;51.984;5.650;2023-09-07T11:14:14;7.63;;;5.18;;
44822;SDS011;51097;51.984;5.650;2023-09-07T11:16:40;7.22;;;5.35;;
44822;SDS011;51097;51.984;5.650;2023-09-07T11:19:06;10.52;;;4.65;;
44822;SDS011;51097;51.984;5.650;2023-09-07T11:21:34;7.43;;;4.93;;
44822;SDS011;51097;51.984;5.650;2023-09-07T11:24:01;5.60;;;4.50;;
44822;SDS011;51097;51.984;5.650;2023-09-07T11:26:29;6.40;;;5.07;;
44822;SDS011;51097;51.984;5.650;2023-09-07T11:29:05;5.25;;;4.75;;
44822;SDS011;51097;51.984;5.650;2023-09-07T11:31:31;6.45;;;4.43;;
44822;SDS011;51097;51.984;5.650;2023-09-07T11:33:57;5.10;;;4.65;;
44822;SDS011;51097;51.984;5.650;2023-09-07T11:36:22;5.10;;;4.38;;
44822;SDS011;51097;51.984;5.650;2023-09-07T11:38:49;6.40;;;4.38;;
44822;SDS011;51097;51.984;5.650;2023-09-07T11:41:15;5.25;;;4.22;;
44822;SDS011;51097;51.984;5.650;2023-09-07T11:43:41;5.30;;;4.90;;
44822;SDS011;51097;51.984;5.650;2023-09-07T11:46:07;4.45;;;4.05;;
44822;SDS011;51097;51.984;5.650;2023-09-07T11:48:33;5.95;;;5.25;;
44822;SDS011;51097;51.984;5.650;2023-09-07T11:50:59;6.72;;;4.78;;
44822;SDS011;51097;51.984;5.650;2023-09-07T11:53:25;6.53;;;4.28;;
44822;SDS011;51097;51.984;5.650;2023-09-07T11:55:51;4.90;;;4.38;;
44822;SDS011;51097;51.984;5.650;2023-09-07T11:58:16;8.63;;;4.90;;
44822;SDS011;51097;51.984;5.650;2023-09-07T12:00:42;5.03;;;4.35;;
44822;SDS011;51097;51.984;5.650;2023-09-07T12:03:08;4.70;;;3.97;;
44822;SDS011;51097;51.984;5.650;2023-09-07T12:05:34;6.57;;;4.88;;
44822;SDS011;51097;51.984;5.650;2023-09-07T12:08:00;7.07;;;5.22;;
44822;SDS011;51097;51.984;5.650;2023-09-07T12:10:26;6.60;;;4.70;;
44822;SDS011;51097;51.984;5.650;2023-09-07T12:12:52;6.13;;;4.53;;
44822;SDS011;51097;51.984;5.650;2023-09-07T12:15:17;6.32;;;4.65;;
44822;SDS011;51097;51.984;5.650;2023-09-07T12:17:43;5.32;;;4.32;;
44822;SDS011;51097;51.984;5.650;2023-09-07T12:20:09;7.05;;;4.65;;
44822;SDS011;51097;51.984;5.650;2023-09-07T12:22:38;5.65;;;4.63;;
44822;SDS011;51097;51.984;5.650;2023-09-07T12:25:05;4.57;;;4.18;;
44822;SDS011;51097;51.984;5.650;2023-09-07T12:27:32;7.53;;;4.68;;
44822;SDS011;51097;51.984;5.650;2023-09-07T12:29:58;5.95;;;4.72;;
44822;SDS011;51097;51.984;5.650;2023-09-07T12:32:24;6.82;;;5.00;;
44822;SDS011;51097;51.984;5.650;2023-09-07T12:34:49;6.57;;;5.05;;
44822;SDS011;51097;51.984;5.650;2023-09-07T12:37:18;4.55;;;4.15;;
44822;SDS011;51097;51.984;5.650;2023-09-07T12:39:44;5.75;;;4.70;;
44822;SDS011;51097;51.984;5.650;2023-09-07T12:42:10;5.15;;;4.35;;
44822;SDS011;51097;51.984;5.650;2023-09-07T12:44:35;5.63;;;4.90;;
44822;SDS011;51097;51.984;5.650;2023-09-07T12:47:01;5.05;;;4.65;;
44822;SDS011;51097;51.984;5.650;2023-09-07T12:49:26;6.90;;;4.72;;
44822;SDS011;51097;51.984;5.650;2023-09-07T12:51:52;8.05;;;4.72;;
44822;SDS011;51097;51.984;5.650;2023-09-07T12:54:18;5.10;;;4.60;;
44822;SDS011;51097;51.984;5.650;2023-09-07T12:56:43;5.45;;;4.28;;
44822;SDS011;51097;51.984;5.650;2023-09-07T12:59:10;4.57;;;4.18;;
44822;SDS011;51097;51.984;5.650;2023-09-07T13:01:35;6.80;;;5.00;;
44822;SDS011;51097;51.984;5.650;2023-09-07T13:04:01;6.45;;;4.72;;
44822;SDS011;51097;51.984;5.650;2023-09-07T13:06:27;8.25;;;4.97;;
44822;SDS011;51097;51.984;5.650;2023-09-07T13:08:53;6.40;;;5.32;;
44822;SDS011;51097;51.984;5.650;2023-09-07T13:11:19;5.22;;;4.35;;
44822;SDS011;51097;51.984;5.650;2023-09-07T13:13:44;5.05;;;4.65;;
44822;SDS011;51097;51.984;5.650;2023-09-07T13:16:10;7.32;;;5.97;;
44822;SDS011;51097;51.984;5.650;2023-09-07T13:18:36;5.50;;;4.05;;
44822;SDS011;51097;51.984;5.650;2023-09-07T13:21:02;6.78;;;4.55;;
44822;SDS011;51097;51.984;5.650;2023-09-07T13:23:28;5.20;;;4.35;;
44822;SDS011;51097;51.984;5.650;2023-09-07T13:25:54;5.47;;;4.97;;
44822;SDS011;51097;51.984;5.650;2023-09-07T13:28:25;7.90;;;4.55;;
44822;SDS011;51097;51.984;5.650;2023-09-07T13:30:51;5.97;;;4.70;;
44822;SDS011;51097;51.984;5.650;2023-09-07T13:33:17;6.78;;;5.22;;
44822;SDS011;51097;51.984;5.650;2023-09-07T13:35:42;10.15;;;4.50;;
44822;SDS011;51097;51.984;5.650;2023-09-07T13:38:09;4.63;;;4.05;;
44822;SDS011;51097;51.984;5.650;2023-09-07T13:40:35;5.88;;;5.25;;
44822;SDS011;51097;51.984;5.650;2023-09-07T13:43:00;5.38;;;4.28;;
44822;SDS011;51097;51.984;5.650;2023-09-07T13:45:26;8.15;;;4.68;;
44822;SDS011;51097;51.984;5.650;2023-09-07T13:47:53;6.88;;;4.90;;
44822;SDS011;51097;51.984;5.650;2023-09-07T13:50:19;5.53;;;5.00;;
44822;SDS011;51097;51.984;5.650;2023-09-07T13:52:44;7.03;;;5.85;;
44822;SDS011;51097;51.984;5.650;2023-09-07T13:55:10;5.03;;;4.55;;
44822;SDS011;51097;51.984;5.650;2023-09-07T13:57:35;5.25;;;4.75;;
44822;SDS011;51097;51.984;5.650;2023-09-07T14:00:01;5.63;;;4.75;;
44822;SDS011;51097;51.984;5.650;2023-09-07T14:02:27;6.55;;;4.88;;
44822;SDS011;51097;51.984;5.650;2023-09-07T14:04:53;6.18;;;5.20;;
44822;SDS011;51097;51.984;5.650;2023-09-07T14:07:19;6.80;;;4.78;;
44822;SDS011;51097;51.984;5.650;2023-09-07T14:09:44;7.25;;;4.85;;
44822;SDS011;51097;51.984;5.650;2023-09-07T14:12:10;5.57;;;5.07;;
44822;SDS011;51097;51.984;5.650;2023-09-07T14:14:37;5.68;;;5.07;;
44822;SDS011;51097;51.984;5.650;2023-09-07T14:17:03;6.70;;;5.10;;
44822;SDS011;51097;51.984;5.650;2023-09-07T14:19:29;7.20;;;5.03;;
44822;SDS011;51097;51.984;5.650;2023-09-07T14:21:56;6.55;;;5.10;;
44822;SDS011;51097;51.984;5.650;2023-09-07T14:24:23;5.50;;;4.90;;
44822;SDS011;51097;51.984;5.650;2023-09-07T14:26:48;7.07;;;5.32;;
44822;SDS011;51097;51.984;5.650;2023-09-07T14:29:14;7.30;;;6.22;;
44822;SDS011;51097;51.984;5.650;2023-09-07T14:31:40;9.60;;;6.13;;
44822;SDS011;51097;51.984;5.650;2023-09-07T14:34:07;6.03;;;5.40;;
44822;SDS011;51097;51.984;5.650;2023-09-07T14:36:33;5.72;;;5.00;;
44822;SDS011;51097;51.984;5.650;2023-09-07T14:38:59;5.97;;;5.15;;
44822;SDS011;51097;51.984;5.650;2023-09-07T14:41:25;6.05;;;5.32;;
44822;SDS011;51097;51.984;5.650;2023-09-07T14:43:53;6.32;;;5.72;;
44822;SDS011;51097;51.984;5.650;2023-09-07T14:46:18;6.43;;;5.68;;
44822;SDS011;51097;51.984;5.650;2023-09-07T14:48:44;6.72;;;4.88;;